createdAt,value
2018-03-03T00:00:25.674Z,68.63
2018-03-03T00:02:53.300Z,71.90
2018-03-03T00:05:21.796Z,72.50
2018-03-03T00:07:50.335Z,74.03
2018-03-03T00:10:17.945Z,72.90
2018-03-03T00:12:46.421Z,71.20
2018-03-03T00:15:15.590Z,71.43
2018-03-03T00:17:43.220Z,74.70
2018-03-03T00:20:10.856Z,73.37
2018-03-03T00:22:41.377Z,70.27
2018-03-03T00:25:09.051Z,71.87
2018-03-03T00:27:36.761Z,73.00
2018-03-03T00:30:04.628Z,76.43
2018-03-03T00:32:32.242Z,73.17
2018-03-03T00:34:59.909Z,70.37
2018-03-03T00:37:27.519Z,77.17
2018-03-03T00:39:55.268Z,70.73
2018-03-03T00:42:23.847Z,72.10
2018-03-03T00:44:51.474Z,72.27
2018-03-03T00:47:19.224Z,68.53
2018-03-03T00:49:46.819Z,74.50
2018-03-03T00:52:14.452Z,75.37
2018-03-03T00:54:42.098Z,79.47
2018-03-03T00:57:10.508Z,79.70
2018-03-03T00:59:40.681Z,72.83
2018-03-03T01:02:09.112Z,75.50
2018-03-03T01:04:36.742Z,67.00
2018-03-03T01:07:04.352Z,69.20
2018-03-03T01:09:31.977Z,72.80
2018-03-03T01:12:00.498Z,74.93
2018-03-03T01:14:28.121Z,74.87
2018-03-03T01:16:56.514Z,69.97
2018-03-03T01:19:24.148Z,70.27
2018-03-03T01:21:51.841Z,68.27
2018-03-03T01:24:19.518Z,69.50
2018-03-03T01:26:47.886Z,69.83
2018-03-03T01:29:15.716Z,71.43
2018-03-03T01:31:43.440Z,72.73
2018-03-03T01:34:11.831Z,78.27
2018-03-03T01:36:40.214Z,76.20
2018-03-03T01:39:08.724Z,74.47
2018-03-03T01:41:36.463Z,76.73
2018-03-03T01:44:04.848Z,77.70
2018-03-03T01:46:33.363Z,76.57
2018-03-03T01:49:00.976Z,78.53
2018-03-03T01:51:40.674Z,75.33
2018-03-03T01:54:08.278Z,77.70
2018-03-03T01:56:35.902Z,73.47
2018-03-03T01:59:03.526Z,81.73
2018-03-03T02:01:39.986Z,84.43
2018-03-03T02:04:07.727Z,73.33
2018-03-03T02:06:35.355Z,77.47
2018-03-03T02:09:03.712Z,82.87
2018-03-03T02:11:32.091Z,84.60
2018-03-03T02:14:01.234Z,82.17
2018-03-03T02:16:28.849Z,81.63
2018-03-03T02:18:56.483Z,77.70
2018-03-03T02:21:24.086Z,79.30
2018-03-03T02:23:51.743Z,80.33
2018-03-03T02:26:19.368Z,80.63
2018-03-03T02:28:46.963Z,80.30
2018-03-03T02:31:14.592Z,75.30
2018-03-03T02:33:42.197Z,76.20
2018-03-03T02:36:09.893Z,75.77
2018-03-03T02:38:38.272Z,76.10
2018-03-03T02:41:06.677Z,76.27
2018-03-03T02:43:39.530Z,76.47
2018-03-03T02:46:07.937Z,79.50
2018-03-03T02:48:36.319Z,79.47
2018-03-03T02:51:04.699Z,78.93
2018-03-03T02:53:33.114Z,69.53
2018-03-03T02:56:00.726Z,78.60
2018-03-03T02:58:29.118Z,75.30
2018-03-03T03:00:57.510Z,71.43
2018-03-03T03:03:25.190Z,74.43
2018-03-03T03:05:53.554Z,77.50
2018-03-03T03:08:21.179Z,74.70
2018-03-03T03:10:48.798Z,72.23
2018-03-03T03:13:17.168Z,72.73
2018-03-03T03:15:44.813Z,74.10
2018-03-03T03:18:12.547Z,78.57
2018-03-03T03:20:40.180Z,73.50
2018-03-03T03:23:08.572Z,79.60
2018-03-03T03:25:36.981Z,73.17
2018-03-03T03:28:04.576Z,76.77
2018-03-03T03:30:32.217Z,80.40
2018-03-03T03:32:59.861Z,81.70
2018-03-03T03:35:28.230Z,81.77
2018-03-03T03:37:56.622Z,79.07
2018-03-03T03:40:24.992Z,73.83
2018-03-03T03:42:52.703Z,82.13
2018-03-03T03:45:20.365Z,76.60
2018-03-03T03:47:47.996Z,76.97
2018-03-03T03:50:16.377Z,77.13
2018-03-03T03:52:43.978Z,77.23
2018-03-03T03:55:11.591Z,74.57
2018-03-03T03:57:40.712Z,80.17
2018-03-03T04:00:09.148Z,73.43
2018-03-03T04:02:36.753Z,74.67
2018-03-03T04:05:04.400Z,76.00
2018-03-03T04:07:32.091Z,74.47
2018-03-03T04:10:00.478Z,77.63
2018-03-03T04:12:28.892Z,81.23
2018-03-03T04:14:56.499Z,74.13
2018-03-03T04:17:24.143Z,81.20
2018-03-03T04:19:51.753Z,75.20
2018-03-03T04:22:20.173Z,75.87
2018-03-03T04:24:47.774Z,76.70
2018-03-03T04:27:15.736Z,81.50
2018-03-03T04:29:43.349Z,78.13
2018-03-03T04:32:11.767Z,88.03
2018-03-03T04:34:39.397Z,79.07
2018-03-03T04:37:07.775Z,81.00
2018-03-03T04:39:35.392Z,79.77
2018-03-03T04:42:03.012Z,82.00
2018-03-03T04:44:30.647Z,74.30
2018-03-03T04:46:58.309Z,77.47
2018-03-03T04:49:25.909Z,66.97
2018-03-03T04:51:54.490Z,72.40
2018-03-03T04:54:22.116Z,73.57
2018-03-03T04:56:49.856Z,72.40
2018-03-03T04:59:35.278Z,67.60
2018-03-03T05:02:06.607Z,64.47
2018-03-03T05:04:36.602Z,67.97
2018-03-03T05:07:09.908Z,64.40
2018-03-03T05:09:39.046Z,75.93
2018-03-03T05:12:06.670Z,75.87
2018-03-03T05:14:54.956Z,73.57
2018-03-03T05:17:28.890Z,70.73
2018-03-03T05:20:03.004Z,67.57
2018-03-03T05:22:42.016Z,74.53
2018-03-03T05:25:15.081Z,73.87
2018-03-03T05:27:48.321Z,73.50
2018-03-03T05:30:32.304Z,75.50
2018-03-03T05:33:05.444Z,68.77
2018-03-03T05:35:36.288Z,74.80
2018-03-03T05:38:10.309Z,72.57
2018-03-03T05:40:47.842Z,75.63
2018-03-03T05:43:22.227Z,72.00
2018-03-03T05:46:04.724Z,71.00
2018-03-03T05:48:34.678Z,73.20
2018-03-03T05:51:12.394Z,70.50
2018-03-03T05:53:45.471Z,68.67
2018-03-03T05:56:18.722Z,67.60
2018-03-03T06:02:04.216Z,76.07
2018-03-03T06:04:47.415Z,72.63
2018-03-03T06:07:21.573Z,75.87
2018-03-03T06:09:52.001Z,82.57
2018-03-03T06:12:19.623Z,79.87
2018-03-03T06:14:48.005Z,82.33
2018-03-03T06:17:16.420Z,84.73
2018-03-03T06:19:44.059Z,77.80
2018-03-03T06:22:12.484Z,71.50
2018-03-03T06:24:40.095Z,76.30
2018-03-03T06:27:07.742Z,72.90
2018-03-03T06:29:35.367Z,71.07
2018-03-03T06:32:02.992Z,67.70
2018-03-03T06:34:31.386Z,68.90
2018-03-03T06:36:59.787Z,66.60
2018-03-03T06:39:27.409Z,68.10
2018-03-03T06:41:55.027Z,63.93
2018-03-03T06:44:22.829Z,68.23
2018-03-03T06:46:50.430Z,67.47
2018-03-03T06:49:18.802Z,67.63
2018-03-03T06:51:46.453Z,68.03
2018-03-03T06:54:14.054Z,62.87
2018-03-03T06:56:42.448Z,62.00
2018-03-03T06:59:10.913Z,64.60
2018-03-03T07:01:38.557Z,57.23
2018-03-03T07:04:06.218Z,64.67
2018-03-03T07:06:33.830Z,63.53
2018-03-03T07:09:01.458Z,64.60
2018-03-03T07:11:29.072Z,60.60
2018-03-03T07:13:56.937Z,59.57
2018-03-03T07:16:25.302Z,61.63
2018-03-03T07:18:53.675Z,57.07
2018-03-03T07:21:21.310Z,60.27
2018-03-03T07:23:51.160Z,57.03
2018-03-03T07:26:18.900Z,57.27
2018-03-03T07:28:46.526Z,58.73
2018-03-03T07:31:14.172Z,60.50
2018-03-03T07:33:42.650Z,57.17
2018-03-03T07:36:11.315Z,58.70
2018-03-03T07:38:39.042Z,55.77
2018-03-03T07:41:06.656Z,55.13
2018-03-03T07:43:34.293Z,55.30
2018-03-03T07:46:01.930Z,54.60
2018-03-03T07:48:29.639Z,54.20
2018-03-03T07:50:57.221Z,56.03
2018-03-03T07:53:24.856Z,54.63
2018-03-03T07:55:52.473Z,53.70
2018-03-03T07:58:32.233Z,51.33
2018-03-03T08:01:00.681Z,53.97
2018-03-03T08:03:29.165Z,52.30
2018-03-03T08:05:57.005Z,54.10
2018-03-03T08:08:24.661Z,52.30
2018-03-03T08:10:52.319Z,54.97
2018-03-03T08:13:20.875Z,52.10
2018-03-03T08:15:49.295Z,49.53
2018-03-03T08:18:18.121Z,49.57
2018-03-03T08:20:45.724Z,48.20
2018-03-03T08:23:14.138Z,47.47
2018-03-03T08:25:41.829Z,47.20
2018-03-03T08:28:09.555Z,49.70
2018-03-03T08:30:38.079Z,47.20
2018-03-03T08:33:05.693Z,50.43
2018-03-03T08:35:34.081Z,46.37
2018-03-03T08:38:02.442Z,44.80
2018-03-03T08:40:30.073Z,46.40
2018-03-03T08:42:57.685Z,43.90
2018-03-03T08:45:25.302Z,43.70
2018-03-03T08:47:52.927Z,40.10
2018-03-03T08:50:21.399Z,37.83
2018-03-03T08:52:48.990Z,34.80
2018-03-03T08:55:16.600Z,34.83
2018-03-03T08:57:44.248Z,31.47
2018-03-03T09:00:11.852Z,33.73
2018-03-03T09:02:39.816Z,31.53
2018-03-03T09:05:07.476Z,34.77
2018-03-03T09:07:35.130Z,33.27
2018-03-03T09:10:02.820Z,32.67
2018-03-03T09:12:30.414Z,30.77
2018-03-03T09:14:58.873Z,30.80
2018-03-03T09:17:27.277Z,29.20
2018-03-03T09:19:54.862Z,32.43
2018-03-03T09:22:23.256Z,30.27
2018-03-03T09:24:50.892Z,30.63
2018-03-03T09:27:19.296Z,32.00
2018-03-03T09:29:47.667Z,33.17
2018-03-03T09:32:16.076Z,33.50
2018-03-03T09:34:43.678Z,35.60
2018-03-03T09:37:11.292Z,35.50
2018-03-03T09:39:39.663Z,33.00
2018-03-03T09:42:08.030Z,31.93
2018-03-03T09:44:36.456Z,27.90
2018-03-03T09:47:04.063Z,32.27
2018-03-03T09:49:31.709Z,26.77
2018-03-03T09:51:59.311Z,25.10
2018-03-03T09:54:26.942Z,19.33
2018-03-03T09:56:54.545Z,27.20
2018-03-03T09:59:22.185Z,27.93
2018-03-03T10:01:52.333Z,28.27
2018-03-03T10:04:17.449Z,37.67
2018-03-03T10:06:45.108Z,26.80
2018-03-03T10:09:12.719Z,21.53
2018-03-03T10:11:40.459Z,19.53
2018-03-03T10:14:08.836Z,25.07
2018-03-03T10:16:36.485Z,16.77
2018-03-03T10:19:04.085Z,16.70
2018-03-03T10:21:32.473Z,16.37
2018-03-03T10:24:00.114Z,14.83
2018-03-03T10:26:28.479Z,14.87
2018-03-03T10:28:56.102Z,14.90
2018-03-03T10:31:23.825Z,14.60
2018-03-03T10:33:52.995Z,13.57
2018-03-03T10:36:20.740Z,13.67
2018-03-03T10:38:48.365Z,13.97
2018-03-03T10:41:16.801Z,15.77
2018-03-03T10:43:44.415Z,14.50
2018-03-03T10:46:12.813Z,15.53
2018-03-03T10:48:41.180Z,16.50
2018-03-03T10:51:09.003Z,16.37
2018-03-03T10:53:36.594Z,14.80
2018-03-03T10:56:04.190Z,17.60
2018-03-03T10:58:32.737Z,17.17
2018-03-03T11:01:00.304Z,18.20
2018-03-03T11:03:28.162Z,16.80
2018-03-03T11:05:55.770Z,17.00
2018-03-03T11:08:23.410Z,19.37
2018-03-03T11:10:51.006Z,17.37
2018-03-03T11:13:19.386Z,19.93
2018-03-03T11:15:47.020Z,18.87
2018-03-03T11:18:14.624Z,20.30
2018-03-03T11:20:43.023Z,21.20
2018-03-03T11:23:11.464Z,20.90
2018-03-03T11:25:39.128Z,21.60
2018-03-03T11:28:06.751Z,21.13
2018-03-03T11:30:34.368Z,22.50
2018-03-03T11:33:01.995Z,24.10
2018-03-03T11:35:29.607Z,26.10
2018-03-03T11:37:57.232Z,27.67
2018-03-03T11:40:24.824Z,28.47
2018-03-03T11:42:52.424Z,32.10
2018-03-03T11:45:20.811Z,33.90
2018-03-03T11:47:49.211Z,36.90
2018-03-03T11:50:16.895Z,35.97
2018-03-03T11:52:44.499Z,36.37
2018-03-03T11:55:12.118Z,38.03
2018-03-03T11:57:39.721Z,39.13
2018-03-03T12:00:07.329Z,34.63
2018-03-03T12:02:34.968Z,40.27
2018-03-03T12:05:02.578Z,43.50
2018-03-03T12:07:30.249Z,48.00
2018-03-03T12:09:57.855Z,45.20
2018-03-03T12:12:25.489Z,44.57
2018-03-03T12:14:53.147Z,46.53
2018-03-03T12:17:20.822Z,43.80
2018-03-03T12:19:48.452Z,46.07
2018-03-03T12:22:16.863Z,46.70
2018-03-03T12:24:44.517Z,50.07
2018-03-03T12:27:12.896Z,46.83
2018-03-03T12:29:41.436Z,48.53
2018-03-03T12:32:09.066Z,46.43
2018-03-03T12:34:36.693Z,46.73
2018-03-03T12:37:05.092Z,47.67
2018-03-03T12:39:33.495Z,51.30
2018-03-03T12:42:01.103Z,45.50
2018-03-03T12:44:28.705Z,46.30
2018-03-03T12:46:57.100Z,46.70
2018-03-03T12:49:24.700Z,55.03
2018-03-03T12:51:52.375Z,48.13
2018-03-03T12:54:20.003Z,42.77
2018-03-03T12:56:47.626Z,45.77
2018-03-03T12:59:15.344Z,63.67
2018-03-03T13:01:42.937Z,45.47
2018-03-03T13:04:10.794Z,48.47
2018-03-03T13:06:38.396Z,49.20
2018-03-03T13:09:08.550Z,45.40
2018-03-03T13:11:36.930Z,43.60
2018-03-03T13:14:05.310Z,42.80
2018-03-03T13:16:33.708Z,43.37
2018-03-03T13:19:01.489Z,44.53
2018-03-03T13:21:29.123Z,41.50
2018-03-03T13:23:57.498Z,42.77
2018-03-03T13:26:25.908Z,49.03
2018-03-03T13:28:53.576Z,44.67
2018-03-03T13:31:21.251Z,45.43
2018-03-03T13:33:48.885Z,44.33
2018-03-03T13:36:16.512Z,47.83
2018-03-03T13:38:44.155Z,45.30
2018-03-03T13:41:11.802Z,43.90
2018-03-03T13:43:40.191Z,46.60
2018-03-03T13:46:07.819Z,44.70
2018-03-03T13:48:35.458Z,45.83
2018-03-03T13:51:03.068Z,45.10
2018-03-03T13:53:31.487Z,45.60
2018-03-03T13:55:59.104Z,43.27
2018-03-03T13:58:26.745Z,44.47
2018-03-03T14:00:54.384Z,45.93
2018-03-03T14:03:21.980Z,49.47
2018-03-03T14:05:49.620Z,47.17
2018-03-03T14:08:17.223Z,48.43
2018-03-03T14:10:44.847Z,48.60
2018-03-03T14:13:12.525Z,48.23
2018-03-03T14:15:40.258Z,45.87
2018-03-03T14:18:08.630Z,46.33
2018-03-03T14:20:36.391Z,47.67
2018-03-03T14:23:04.057Z,47.20
2018-03-03T14:25:33.166Z,49.00
2018-03-03T14:28:00.814Z,50.60
2018-03-03T14:30:28.463Z,49.37
2018-03-03T14:33:03.594Z,47.73
2018-03-03T14:35:31.280Z,55.97
2018-03-03T14:37:58.979Z,52.40
2018-03-03T14:40:27.400Z,53.07
2018-03-03T14:42:55.018Z,54.60
2018-03-03T14:45:23.470Z,57.23
2018-03-03T14:47:51.075Z,53.60
2018-03-03T14:50:19.491Z,53.93
2018-03-03T14:52:47.122Z,52.80
2018-03-03T14:55:14.791Z,56.90
2018-03-03T14:57:43.359Z,54.10
2018-03-03T15:00:11.756Z,55.10
2018-03-03T15:02:39.421Z,54.03
2018-03-03T15:05:07.844Z,51.57
2018-03-03T15:07:35.514Z,55.27
2018-03-03T15:10:03.149Z,54.47
2018-03-03T15:12:31.560Z,53.93
2018-03-03T15:14:59.177Z,53.23
2018-03-03T15:17:28.357Z,55.80
2018-03-03T15:19:56.089Z,54.73
2018-03-03T15:22:23.722Z,56.30
2018-03-03T15:24:51.397Z,53.83
2018-03-03T15:27:19.963Z,55.60
2018-03-03T15:29:47.568Z,52.97
2018-03-03T15:32:15.213Z,52.40
2018-03-03T15:34:43.607Z,51.43
2018-03-03T15:37:12.152Z,48.50
2018-03-03T15:39:39.764Z,52.07
2018-03-03T15:42:08.269Z,52.97
2018-03-03T15:44:35.896Z,53.50
2018-03-03T15:47:04.290Z,54.73
2018-03-03T15:49:32.695Z,55.57
2018-03-03T15:52:01.123Z,53.03
2018-03-03T15:54:28.836Z,53.00
2018-03-03T15:56:57.263Z,50.17
2018-03-03T15:59:24.936Z,71.30
2018-03-03T16:01:52.589Z,81.20
2018-03-03T16:04:20.283Z,79.53
2018-03-03T16:06:47.903Z,53.70
2018-03-03T16:09:15.514Z,55.50
2018-03-03T16:11:43.286Z,57.27
2018-03-03T16:14:10.979Z,55.73
2018-03-03T16:16:41.204Z,59.30
2018-03-03T16:19:09.728Z,56.67
2018-03-03T16:21:37.492Z,54.00
2018-03-03T16:24:05.101Z,56.00
2018-03-03T16:26:33.749Z,57.37
2018-03-03T16:29:01.362Z,55.70
2018-03-03T16:31:29.814Z,54.80
2018-03-03T16:33:57.453Z,98.07
2018-03-03T16:36:25.100Z,79.07
2018-03-03T16:38:53.538Z,96.10
2018-03-03T16:41:21.149Z,74.87
2018-03-03T16:43:49.583Z,72.63
2018-03-03T16:46:17.257Z,77.67
2018-03-03T16:48:44.883Z,52.53
2018-03-03T16:51:13.270Z,50.13
2018-03-03T16:53:40.923Z,55.97
2018-03-03T16:56:09.441Z,53.83
2018-03-03T16:58:37.065Z,52.33
2018-03-03T17:01:04.709Z,53.37
2018-03-03T17:03:32.372Z,53.57
2018-03-03T17:05:59.975Z,54.47
2018-03-03T17:08:28.563Z,51.17
2018-03-03T17:10:56.922Z,56.30
2018-03-03T17:13:26.087Z,59.10
2018-03-03T17:15:53.713Z,52.90
2018-03-03T17:18:22.180Z,54.77
2018-03-03T17:20:50.734Z,54.77
2018-03-03T17:23:18.361Z,54.60
2018-03-03T17:25:46.824Z,52.83
2018-03-03T17:28:15.241Z,53.00
2018-03-03T17:30:42.883Z,56.50
2018-03-03T17:33:11.294Z,52.27
2018-03-03T17:35:38.930Z,50.50
2018-03-03T17:38:07.338Z,56.03
2018-03-03T17:40:34.986Z,55.37
2018-03-03T17:43:03.500Z,52.53
2018-03-03T17:45:31.138Z,53.47
2018-03-03T17:47:59.576Z,50.27
2018-03-03T17:50:27.184Z,54.07
2018-03-03T17:52:55.012Z,54.70
2018-03-03T17:55:22.656Z,50.90
2018-03-03T17:57:50.266Z,52.70
2018-03-03T18:00:17.921Z,53.47
2018-03-03T18:02:45.618Z,54.07
2018-03-03T18:05:13.344Z,48.20
2018-03-03T18:07:40.994Z,49.00
2018-03-03T18:10:08.645Z,48.93
2018-03-03T18:12:36.325Z,46.07
2018-03-03T18:15:03.962Z,49.13
2018-03-03T18:17:32.377Z,49.43
2018-03-03T18:20:00.021Z,50.77
2018-03-03T18:22:27.667Z,47.50
2018-03-03T18:24:55.281Z,50.77
2018-03-03T18:27:23.284Z,53.27
2018-03-03T18:29:51.736Z,51.00
2018-03-03T18:32:19.448Z,52.20
2018-03-03T18:34:48.039Z,48.40
2018-03-03T18:37:15.866Z,45.73
2018-03-03T18:39:43.509Z,50.47
2018-03-03T18:42:12.135Z,50.87
2018-03-03T18:44:39.770Z,47.50
2018-03-03T18:47:07.627Z,45.57
2018-03-03T18:49:36.065Z,46.27
2018-03-03T18:52:03.797Z,44.40
2018-03-03T18:54:31.431Z,43.63
2018-03-03T18:56:59.953Z,45.13
2018-03-03T18:59:28.148Z,45.47
2018-03-03T19:01:55.839Z,43.10
2018-03-03T19:04:23.485Z,45.87
2018-03-03T19:06:51.144Z,44.43
2018-03-03T19:09:18.837Z,41.87
2018-03-03T19:11:46.495Z,43.80
2018-03-03T19:14:14.203Z,46.43
2018-03-03T19:16:42.641Z,45.73
2018-03-03T19:19:10.366Z,45.90
2018-03-03T19:21:38.058Z,49.07
2018-03-03T19:24:05.723Z,47.77
2018-03-03T19:26:33.431Z,44.83
2018-03-03T19:29:01.931Z,48.13
2018-03-03T19:31:30.399Z,48.20
2018-03-03T19:33:58.073Z,48.10
2018-03-03T19:36:25.847Z,50.37
2018-03-03T19:38:54.967Z,55.67
2018-03-03T19:41:23.487Z,49.60
2018-03-03T19:43:51.324Z,51.00
2018-03-03T19:46:19.744Z,48.57
2018-03-03T19:48:47.450Z,50.50
2018-03-03T19:51:15.132Z,47.83
2018-03-03T19:53:43.580Z,51.43
2018-03-03T19:56:11.229Z,51.23
2018-03-03T19:58:38.994Z,52.77
2018-03-03T20:01:06.677Z,51.73
2018-03-03T20:03:34.461Z,51.07
2018-03-03T20:06:03.002Z,51.53
2018-03-03T20:08:31.459Z,49.90
2018-03-03T20:10:59.157Z,48.73
2018-03-03T20:13:26.880Z,48.43
2018-03-03T20:15:54.649Z,49.47
2018-03-03T20:18:24.061Z,45.87
2018-03-03T20:20:53.200Z,46.50
2018-03-03T20:23:20.865Z,47.83
2018-03-03T20:25:49.424Z,42.60
2018-03-03T20:28:17.829Z,45.80
2018-03-03T20:30:46.224Z,42.60
2018-03-03T20:33:13.883Z,43.67
2018-03-03T20:35:42.347Z,43.93
2018-03-03T20:38:10.786Z,44.87
2018-03-03T20:40:38.447Z,40.67
2018-03-03T20:43:06.096Z,41.70
2018-03-03T20:45:33.843Z,41.33
2018-03-03T20:48:02.271Z,43.47
2018-03-03T20:50:29.930Z,41.23
2018-03-03T20:52:57.622Z,41.97
2018-03-03T20:55:25.287Z,41.17
2018-03-03T20:57:52.970Z,42.60
2018-03-03T21:00:20.629Z,41.67
2018-03-03T21:02:48.333Z,43.50
2018-03-03T21:05:16.806Z,43.70
2018-03-03T21:07:44.431Z,43.80
2018-03-03T21:10:12.136Z,42.50
2018-03-03T21:12:41.271Z,43.07
2018-03-03T21:15:09.850Z,40.63
2018-03-03T21:17:37.601Z,43.30
2018-03-03T21:20:06.798Z,42.27
2018-03-03T21:22:35.383Z,40.97
2018-03-03T21:25:03.915Z,42.53
2018-03-03T21:27:32.415Z,40.23
2018-03-03T21:30:00.168Z,43.20
2018-03-03T21:32:27.811Z,47.50
2018-03-03T21:34:56.238Z,45.33
2018-03-03T21:37:23.887Z,45.20
2018-03-03T21:39:51.520Z,47.47
2018-03-03T21:42:19.935Z,47.23
2018-03-03T21:44:47.939Z,41.03
2018-03-03T21:47:15.569Z,45.07
2018-03-03T21:49:43.165Z,43.27
2018-03-03T21:52:10.911Z,45.07
2018-03-03T21:54:38.538Z,43.80
2018-03-03T21:57:06.962Z,45.47
2018-03-03T21:59:34.575Z,48.10
2018-03-03T22:02:02.231Z,44.50
2018-03-03T22:04:29.845Z,46.67
2018-03-03T22:06:58.237Z,46.90
2018-03-03T22:09:26.057Z,45.60
2018-03-03T22:11:53.690Z,48.40
2018-03-03T22:14:21.348Z,44.63
2018-03-03T22:16:48.969Z,46.80
2018-03-03T22:19:16.641Z,47.00
2018-03-03T22:21:45.045Z,46.53
2018-03-03T22:24:13.729Z,46.40
2018-03-03T22:26:41.371Z,48.07
2018-03-03T22:29:09.001Z,48.50
2018-03-03T22:31:36.658Z,44.53
2018-03-03T22:34:04.305Z,45.90
2018-03-03T22:36:32.664Z,45.23
2018-03-03T22:39:00.287Z,43.90
2018-03-03T22:41:27.914Z,44.53
2018-03-03T22:43:56.314Z,46.43
2018-03-03T22:46:25.042Z,43.27
2018-03-03T22:48:53.545Z,48.40
2018-03-03T22:51:22.709Z,47.13
2018-03-03T22:53:50.367Z,48.00
2018-03-03T22:56:17.968Z,46.50
2018-03-03T22:58:45.682Z,45.57
2018-03-03T23:01:14.043Z,46.47
2018-03-03T23:03:41.773Z,49.10
2018-03-03T23:06:09.385Z,46.27
2018-03-03T23:08:37.857Z,46.00
2018-03-03T23:11:05.482Z,47.50
2018-03-03T23:13:33.094Z,46.50
2018-03-03T23:16:01.502Z,48.07
2018-03-03T23:18:29.132Z,47.13
2018-03-03T23:20:58.246Z,49.83
2018-03-03T23:23:26.640Z,47.33
2018-03-03T23:25:55.105Z,47.27
2018-03-03T23:28:23.525Z,48.30
2018-03-03T23:30:51.126Z,51.80
2018-03-03T23:33:18.857Z,48.27
2018-03-03T23:35:46.481Z,50.57
2018-03-03T23:38:14.092Z,50.07
2018-03-03T23:40:41.696Z,47.00
2018-03-03T23:43:09.330Z,49.60
2018-03-03T23:45:36.952Z,47.40
2018-03-03T23:48:04.663Z,46.20
2018-03-03T23:50:32.285Z,49.10
2018-03-03T23:52:59.892Z,47.10
2018-03-03T23:55:28.289Z,48.67
2018-03-03T23:57:55.904Z,51.20
